sensor_id;sensor_type;location;lat;lon;timestamp;P1;durP1;ratioP1;P2;durP2;ratioP2
6821;SDS011;3449;48.728;8.968;2023-12-20T00:02:21;1.27;;;1.20;;
6821;SDS011;3449;48.728;8.968;2023-12-20T00:04:48;0.97;;;0.83;;
6821;SDS011;3449;48.728;8.968;2023-12-20T00:07:15;4.13;;;1.53;;
6821;SDS011;3449;48.728;8.968;2023-12-20T00:09:42;1.90;;;1.10;;
6821;SDS011;3449;48.728;8.968;2023-12-20T00:12:09;1.10;;;1.00;;
6821;SDS011;3449;48.728;8.968;2023-12-20T00:14:36;1.93;;;1.47;;
6821;SDS011;3449;48.728;8.968;2023-12-20T00:17:04;0.70;;;0.70;;
6821;SDS011;3449;48.728;8.968;2023-12-20T00:19:31;1.73;;;1.40;;
6821;SDS011;3449;48.728;8.968;2023-12-20T00:21:57;1.17;;;0.90;;
6821;SDS011;3449;48.728;8.968;2023-12-20T00:24:25;1.93;;;1.40;;
6821;SDS011;3449;48.728;8.968;2023-12-20T00:26:52;1.57;;;1.17;;
6821;SDS011;3449;48.728;8.968;2023-12-20T00:29:19;2.30;;;1.00;;
6821;SDS011;3449;48.728;8.968;2023-12-20T00:31:45;1.93;;;1.30;;
6821;SDS011;3449;48.728;8.968;2023-12-20T00:34:14;1.07;;;1.03;;
6821;SDS011;3449;48.728;8.968;2023-12-20T00:36:40;1.27;;;0.97;;
6821;SDS011;3449;48.728;8.968;2023-12-20T00:39:07;0.80;;;0.70;;
6821;SDS011;3449;48.728;8.968;2023-12-20T00:41:34;1.63;;;0.97;;
6821;SDS011;3449;48.728;8.968;2023-12-20T00:44:01;1.77;;;0.83;;
6821;SDS011;3449;48.728;8.968;2023-12-20T00:46:28;1.20;;;1.10;;
6821;SDS011;3449;48.728;8.968;2023-12-20T00:48:54;1.53;;;1.00;;
6821;SDS011;3449;48.728;8.968;2023-12-20T00:51:22;1.13;;;0.90;;
6821;SDS011;3449;48.728;8.968;2023-12-20T00:53:49;0.70;;;0.67;;
6821;SDS011;3449;48.728;8.968;2023-12-20T00:56:19;0.90;;;0.80;;
6821;SDS011;3449;48.728;8.968;2023-12-20T00:58:46;1.03;;;0.70;;
6821;SDS011;3449;48.728;8.968;2023-12-20T01:01:13;1.10;;;1.00;;
6821;SDS011;3449;48.728;8.968;2023-12-20T01:03:40;3.97;;;1.00;;
6821;SDS011;3449;48.728;8.968;2023-12-20T01:06:06;1.30;;;1.20;;
6821;SDS011;3449;48.728;8.968;2023-12-20T01:08:35;0.83;;;0.80;;
6821;SDS011;3449;48.728;8.968;2023-12-20T01:11:03;1.17;;;1.07;;
6821;SDS011;3449;48.728;8.968;2023-12-20T01:13:30;1.07;;;1.00;;
6821;SDS011;3449;48.728;8.968;2023-12-20T01:15:57;0.70;;;0.60;;
6821;SDS011;3449;48.728;8.968;2023-12-20T01:18:24;3.37;;;1.17;;
6821;SDS011;3449;48.728;8.968;2023-12-20T01:20:51;0.90;;;0.90;;
6821;SDS011;3449;48.728;8.968;2023-12-20T01:23:18;1.63;;;1.20;;
6821;SDS011;3449;48.728;8.968;2023-12-20T01:25:46;1.27;;;0.80;;
6821;SDS011;3449;48.728;8.968;2023-12-20T01:28:13;2.60;;;1.10;;
6821;SDS011;3449;48.728;8.968;2023-12-20T01:30:39;2.70;;;1.67;;
6821;SDS011;3449;48.728;8.968;2023-12-20T01:33:06;6.47;;;1.70;;
6821;SDS011;3449;48.728;8.968;2023-12-20T01:35:33;1.40;;;1.23;;
6821;SDS011;3449;48.728;8.968;2023-12-20T01:38:00;1.20;;;1.10;;
6821;SDS011;3449;48.728;8.968;2023-12-20T01:40:27;1.20;;;0.77;;
6821;SDS011;3449;48.728;8.968;2023-12-20T01:43:01;1.23;;;1.13;;
6821;SDS011;3449;48.728;8.968;2023-12-20T01:45:31;0.93;;;0.57;;
6821;SDS011;3449;48.728;8.968;2023-12-20T01:47:58;0.80;;;0.80;;
6821;SDS011;3449;48.728;8.968;2023-12-20T01:50:26;1.30;;;1.20;;
6821;SDS011;3449;48.728;8.968;2023-12-20T01:52:54;0.93;;;0.63;;
6821;SDS011;3449;48.728;8.968;2023-12-20T01:55:23;0.70;;;0.67;;
6821;SDS011;3449;48.728;8.968;2023-12-20T01:57:51;0.60;;;0.50;;
6821;SDS011;3449;48.728;8.968;2023-12-20T02:00:19;2.20;;;0.70;;
6821;SDS011;3449;48.728;8.968;2023-12-20T02:02:51;0.80;;;0.50;;
6821;SDS011;3449;48.728;8.968;2023-12-20T02:05:20;0.57;;;0.57;;
6821;SDS011;3449;48.728;8.968;2023-12-20T02:07:47;1.23;;;0.60;;
6821;SDS011;3449;48.728;8.968;2023-12-20T02:10:14;0.50;;;0.50;;
6821;SDS011;3449;48.728;8.968;2023-12-20T02:12:42;0.47;;;0.33;;
6821;SDS011;3449;48.728;8.968;2023-12-20T02:15:09;0.80;;;0.50;;
6821;SDS011;3449;48.728;8.968;2023-12-20T02:17:37;0.40;;;0.30;;
6821;SDS011;3449;48.728;8.968;2023-12-20T02:20:06;0.40;;;0.40;;
6821;SDS011;3449;48.728;8.968;2023-12-20T02:22:34;0.40;;;0.30;;
6821;SDS011;3449;48.728;8.968;2023-12-20T02:25:01;0.40;;;0.30;;
6821;SDS011;3449;48.728;8.968;2023-12-20T02:27:28;0.40;;;0.40;;
6821;SDS011;3449;48.728;8.968;2023-12-20T02:29:56;0.50;;;0.30;;
6821;SDS011;3449;48.728;8.968;2023-12-20T02:32:23;0.60;;;0.33;;
6821;SDS011;3449;48.728;8.968;2023-12-20T02:34:51;0.80;;;0.30;;
6821;SDS011;3449;48.728;8.968;2023-12-20T02:37:18;0.40;;;0.30;;
6821;SDS011;3449;48.728;8.968;2023-12-20T02:39:46;0.73;;;0.30;;
6821;SDS011;3449;48.728;8.968;2023-12-20T02:42:13;0.47;;;0.47;;
6821;SDS011;3449;48.728;8.968;2023-12-20T02:44:40;0.40;;;0.30;;
6821;SDS011;3449;48.728;8.968;2023-12-20T02:47:07;0.40;;;0.33;;
6821;SDS011;3449;48.728;8.968;2023-12-20T02:49:33;0.40;;;0.40;;
6821;SDS011;3449;48.728;8.968;2023-12-20T02:52:00;0.40;;;0.40;;
6821;SDS011;3449;48.728;8.968;2023-12-20T02:54:27;0.40;;;0.40;;
6821;SDS011;3449;48.728;8.968;2023-12-20T02:56:55;0.40;;;0.30;;
6821;SDS011;3449;48.728;8.968;2023-12-20T02:59:22;0.40;;;0.20;;
6821;SDS011;3449;48.728;8.968;2023-12-20T03:01:49;0.50;;;0.30;;
6821;SDS011;3449;48.728;8.968;2023-12-20T03:04:15;0.40;;;0.23;;
6821;SDS011;3449;48.728;8.968;2023-12-20T03:06:42;0.40;;;0.20;;
6821;SDS011;3449;48.728;8.968;2023-12-20T03:09:09;0.37;;;0.20;;
6821;SDS011;3449;48.728;8.968;2023-12-20T03:11:36;0.87;;;0.30;;
6821;SDS011;3449;48.728;8.968;2023-12-20T03:14:04;0.40;;;0.20;;
6821;SDS011;3449;48.728;8.968;2023-12-20T03:16:31;0.40;;;0.30;;
6821;SDS011;3449;48.728;8.968;2023-12-20T03:18:58;1.43;;;0.40;;
6821;SDS011;3449;48.728;8.968;2023-12-20T03:21:25;0.40;;;0.30;;
6821;SDS011;3449;48.728;8.968;2023-12-20T03:23:51;0.40;;;0.20;;
6821;SDS011;3449;48.728;8.968;2023-12-20T03:26:18;0.70;;;0.30;;
6821;SDS011;3449;48.728;8.968;2023-12-20T03:28:45;0.40;;;0.20;;
6821;SDS011;3449;48.728;8.968;2023-12-20T03:31:14;0.40;;;0.30;;
6821;SDS011;3449;48.728;8.968;2023-12-20T03:33:41;0.40;;;0.30;;
6821;SDS011;3449;48.728;8.968;2023-12-20T03:36:08;0.40;;;0.20;;
6821;SDS011;3449;48.728;8.968;2023-12-20T03:38:35;0.30;;;0.20;;
6821;SDS011;3449;48.728;8.968;2023-12-20T03:41:02;0.30;;;0.20;;
6821;SDS011;3449;48.728;8.968;2023-12-20T03:43:29;0.40;;;0.20;;
6821;SDS011;3449;48.728;8.968;2023-12-20T03:45:56;0.40;;;0.30;;
6821;SDS011;3449;48.728;8.968;2023-12-20T03:48:25;0.40;;;0.20;;
6821;SDS011;3449;48.728;8.968;2023-12-20T03:50:52;0.30;;;0.20;;
6821;SDS011;3449;48.728;8.968;2023-12-20T03:53:19;0.40;;;0.20;;
6821;SDS011;3449;48.728;8.968;2023-12-20T03:55:45;0.40;;;0.30;;
6821;SDS011;3449;48.728;8.968;2023-12-20T03:58:12;0.40;;;0.20;;
6821;SDS011;3449;48.728;8.968;2023-12-20T04:00:39;0.40;;;0.20;;
6821;SDS011;3449;48.728;8.968;2023-12-20T04:03:06;0.40;;;0.20;;
6821;SDS011;3449;48.728;8.968;2023-12-20T04:05:35;0.40;;;0.30;;
6821;SDS011;3449;48.728;8.968;2023-12-20T04:08:02;0.40;;;0.20;;
6821;SDS011;3449;48.728;8.968;2023-12-20T04:10:29;0.40;;;0.30;;
6821;SDS011;3449;48.728;8.968;2023-12-20T04:12:56;0.60;;;0.40;;
6821;SDS011;3449;48.728;8.968;2023-12-20T04:15:23;0.30;;;0.20;;
6821;SDS011;3449;48.728;8.968;2023-12-20T04:17:49;0.40;;;0.20;;
6821;SDS011;3449;48.728;8.968;2023-12-20T04:20:16;0.40;;;0.20;;
6821;SDS011;3449;48.728;8.968;2023-12-20T04:22:44;0.40;;;0.27;;
6821;SDS011;3449;48.728;8.968;2023-12-20T04:25:11;0.50;;;0.33;;
6821;SDS011;3449;48.728;8.968;2023-12-20T04:27:38;0.40;;;0.20;;
6821;SDS011;3449;48.728;8.968;2023-12-20T04:30:06;0.40;;;0.20;;
6821;SDS011;3449;48.728;8.968;2023-12-20T04:32:34;0.60;;;0.40;;
6821;SDS011;3449;48.728;8.968;2023-12-20T04:35:01;0.40;;;0.20;;
6821;SDS011;3449;48.728;8.968;2023-12-20T04:37:27;0.40;;;0.30;;
6821;SDS011;3449;48.728;8.968;2023-12-20T04:39:56;0.40;;;0.40;;
6821;SDS011;3449;48.728;8.968;2023-12-20T04:42:22;0.40;;;0.27;;
6821;SDS011;3449;48.728;8.968;2023-12-20T04:44:49;0.40;;;0.30;;
6821;SDS011;3449;48.728;8.968;2023-12-20T04:47:16;0.50;;;0.30;;
6821;SDS011;3449;48.728;8.968;2023-12-20T04:49:43;0.40;;;0.20;;
6821;SDS011;3449;48.728;8.968;2023-12-20T04:52:10;0.40;;;0.23;;
6821;SDS011;3449;48.728;8.968;2023-12-20T04:54:37;0.40;;;0.20;;
6821;SDS011;3449;48.728;8.968;2023-12-20T04:57:05;1.23;;;0.30;;
6821;SDS011;3449;48.728;8.968;2023-12-20T04:59:32;0.40;;;0.30;;
6821;SDS011;3449;48.728;8.968;2023-12-20T05:01:59;0.40;;;0.20;;
6821;SDS011;3449;48.728;8.968;2023-12-20T05:04:25;0.40;;;0.23;;
6821;SDS011;3449;48.728;8.968;2023-12-20T05:06:52;0.37;;;0.20;;
6821;SDS011;3449;48.728;8.968;2023-12-20T05:09:19;0.40;;;0.30;;
6821;SDS011;3449;48.728;8.968;2023-12-20T05:11:46;0.80;;;0.73;;
6821;SDS011;3449;48.728;8.968;2023-12-20T05:14:14;0.40;;;0.20;;
6821;SDS011;3449;48.728;8.968;2023-12-20T05:16:41;0.37;;;0.20;;
6821;SDS011;3449;48.728;8.968;2023-12-20T05:19:08;0.50;;;0.30;;
6821;SDS011;3449;48.728;8.968;2023-12-20T05:21:35;0.40;;;0.20;;
6821;SDS011;3449;48.728;8.968;2023-12-20T05:24:02;0.40;;;0.20;;
6821;SDS011;3449;48.728;8.968;2023-12-20T05:26:29;0.53;;;0.30;;
6821;SDS011;3449;48.728;8.968;2023-12-20T05:28:56;0.50;;;0.30;;
6821;SDS011;3449;48.728;8.968;2023-12-20T05:31:24;0.40;;;0.30;;
6821;SDS011;3449;48.728;8.968;2023-12-20T05:33:51;0.40;;;0.30;;
6821;SDS011;3449;48.728;8.968;2023-12-20T05:36:18;1.43;;;0.90;;
6821;SDS011;3449;48.728;8.968;2023-12-20T05:38:45;0.67;;;0.60;;
6821;SDS011;3449;48.728;8.968;2023-12-20T05:41:11;2.10;;;0.47;;
6821;SDS011;3449;48.728;8.968;2023-12-20T05:43:38;0.50;;;0.30;;
6821;SDS011;3449;48.728;8.968;2023-12-20T05:46:05;2.53;;;0.60;;
6821;SDS011;3449;48.728;8.968;2023-12-20T05:48:33;0.60;;;0.40;;
6821;SDS011;3449;48.728;8.968;2023-12-20T05:51:00;0.70;;;0.70;;
6821;SDS011;3449;48.728;8.968;2023-12-20T05:53:27;0.67;;;0.67;;
6821;SDS011;3449;48.728;8.968;2023-12-20T05:55:54;0.70;;;0.60;;
6821;SDS011;3449;48.728;8.968;2023-12-20T05:58:20;0.63;;;0.50;;
6821;SDS011;3449;48.728;8.968;2023-12-20T06:00:47;0.40;;;0.30;;
6821;SDS011;3449;48.728;8.968;2023-12-20T06:03:14;0.40;;;0.30;;
6821;SDS011;3449;48.728;8.968;2023-12-20T06:05:43;0.57;;;0.30;;
6821;SDS011;3449;48.728;8.968;2023-12-20T06:08:10;5.10;;;0.50;;
6821;SDS011;3449;48.728;8.968;2023-12-20T06:10:36;0.77;;;0.40;;
6821;SDS011;3449;48.728;8.968;2023-12-20T06:13:03;0.83;;;0.40;;
6821;SDS011;3449;48.728;8.968;2023-12-20T06:15:31;1.37;;;0.70;;
6821;SDS011;3449;48.728;8.968;2023-12-20T06:17:58;0.50;;;0.50;;
6821;SDS011;3449;48.728;8.968;2023-12-20T06:20:25;0.90;;;0.37;;
6821;SDS011;3449;48.728;8.968;2023-12-20T06:22:53;1.03;;;0.50;;
6821;SDS011;3449;48.728;8.968;2023-12-20T06:25:20;0.67;;;0.40;;
6821;SDS011;3449;48.728;8.968;2023-12-20T06:27:47;0.70;;;0.43;;
6821;SDS011;3449;48.728;8.968;2023-12-20T06:30:15;0.77;;;0.50;;
6821;SDS011;3449;48.728;8.968;2023-12-20T06:32:42;0.97;;;0.63;;
6821;SDS011;3449;48.728;8.968;2023-12-20T06:35:09;3.40;;;0.50;;
6821;SDS011;3449;48.728;8.968;2023-12-20T06:37:35;3.33;;;0.70;;
6821;SDS011;3449;48.728;8.968;2023-12-20T06:40:04;1.30;;;0.47;;
6821;SDS011;3449;48.728;8.968;2023-12-20T06:42:32;0.60;;;0.60;;
6821;SDS011;3449;48.728;8.968;2023-12-20T06:44:59;0.77;;;0.30;;
6821;SDS011;3449;48.728;8.968;2023-12-20T06:47:26;0.50;;;0.50;;
6821;SDS011;3449;48.728;8.968;2023-12-20T06:49:53;0.50;;;0.40;;
6821;SDS011;3449;48.728;8.968;2023-12-20T06:52:20;1.90;;;0.90;;
6821;SDS011;3449;48.728;8.968;2023-12-20T06:54:47;0.70;;;0.57;;
6821;SDS011;3449;48.728;8.968;2023-12-20T06:57:15;1.03;;;0.50;;
6821;SDS011;3449;48.728;8.968;2023-12-20T06:59:42;0.40;;;0.40;;
6821;SDS011;3449;48.728;8.968;2023-12-20T07:02:09;0.40;;;0.40;;
6821;SDS011;3449;48.728;8.968;2023-12-20T07:04:38;0.70;;;0.70;;
6821;SDS011;3449;48.728;8.968;2023-12-20T07:07:07;0.60;;;0.40;;
6821;SDS011;3449;48.728;8.968;2023-12-20T07:09:34;0.70;;;0.50;;
6821;SDS011;3449;48.728;8.968;2023-12-20T07:12:00;1.00;;;0.40;;
6821;SDS011;3449;48.728;8.968;2023-12-20T07:14:29;0.40;;;0.40;;
6821;SDS011;3449;48.728;8.968;2023-12-20T07:16:56;0.40;;;0.30;;
6821;SDS011;3449;48.728;8.968;2023-12-20T07:19:23;0.50;;;0.43;;
6821;SDS011;3449;48.728;8.968;2023-12-20T07:21:50;0.40;;;0.40;;
6821;SDS011;3449;48.728;8.968;2023-12-20T07:24:16;0.90;;;0.60;;
6821;SDS011;3449;48.728;8.968;2023-12-20T07:26:43;0.60;;;0.60;;
6821;SDS011;3449;48.728;8.968;2023-12-20T07:29:10;1.00;;;0.83;;
6821;SDS011;3449;48.728;8.968;2023-12-20T07:31:38;1.53;;;0.87;;
6821;SDS011;3449;48.728;8.968;2023-12-20T07:34:05;1.33;;;1.00;;
6821;SDS011;3449;48.728;8.968;2023-12-20T07:36:32;1.47;;;1.37;;
6821;SDS011;3449;48.728;8.968;2023-12-20T07:38:59;3.57;;;1.73;;
6821;SDS011;3449;48.728;8.968;2023-12-20T07:41:26;1.63;;;1.53;;
6821;SDS011;3449;48.728;8.968;2023-12-20T07:43:52;5.60;;;1.73;;
6821;SDS011;3449;48.728;8.968;2023-12-20T07:46:20;2.20;;;2.00;;
6821;SDS011;3449;48.728;8.968;2023-12-20T07:48:50;2.20;;;2.07;;
6821;SDS011;3449;48.728;8.968;2023-12-20T07:51:17;2.20;;;2.10;;
6821;SDS011;3449;48.728;8.968;2023-12-20T07:53:44;3.40;;;2.47;;
6821;SDS011;3449;48.728;8.968;2023-12-20T07:56:14;2.73;;;2.03;;
6821;SDS011;3449;48.728;8.968;2023-12-20T07:58:41;3.20;;;2.60;;
6821;SDS011;3449;48.728;8.968;2023-12-20T08:01:08;3.73;;;2.60;;
6821;SDS011;3449;48.728;8.968;2023-12-20T08:03:36;2.57;;;2.30;;
6821;SDS011;3449;48.728;8.968;2023-12-20T08:06:04;3.00;;;2.70;;
6821;SDS011;3449;48.728;8.968;2023-12-20T08:08:31;2.40;;;2.20;;
6821;SDS011;3449;48.728;8.968;2023-12-20T08:10:58;2.83;;;2.43;;
6821;SDS011;3449;48.728;8.968;2023-12-20T08:13:25;4.20;;;2.40;;
6821;SDS011;3449;48.728;8.968;2023-12-20T08:15:52;3.73;;;2.33;;
6821;SDS011;3449;48.728;8.968;2023-12-20T08:18:21;4.43;;;2.47;;
6821;SDS011;3449;48.728;8.968;2023-12-20T08:20:48;2.60;;;2.40;;
6821;SDS011;3449;48.728;8.968;2023-12-20T08:23:19;4.90;;;2.73;;
6821;SDS011;3449;48.728;8.968;2023-12-20T08:25:46;4.23;;;2.50;;
6821;SDS011;3449;48.728;8.968;2023-12-20T08:28:14;3.00;;;2.70;;
6821;SDS011;3449;48.728;8.968;2023-12-20T08:30:41;2.17;;;1.97;;
6821;SDS011;3449;48.728;8.968;2023-12-20T08:33:08;2.50;;;2.00;;
6821;SDS011;3449;48.728;8.968;2023-12-20T08:35:37;6.27;;;2.73;;
6821;SDS011;3449;48.728;8.968;2023-12-20T08:38:04;2.33;;;1.87;;
6821;SDS011;3449;48.728;8.968;2023-12-20T08:40:33;2.83;;;2.20;;
6821;SDS011;3449;48.728;8.968;2023-12-20T08:43:00;1.80;;;1.70;;
6821;SDS011;3449;48.728;8.968;2023-12-20T08:45:27;1.53;;;1.10;;
6821;SDS011;3449;48.728;8.968;2023-12-20T08:47:53;1.83;;;1.60;;
6821;SDS011;3449;48.728;8.968;2023-12-20T08:50:20;4.17;;;2.23;;
6821;SDS011;3449;48.728;8.968;2023-12-20T08:52:47;5.90;;;2.00;;
6821;SDS011;3449;48.728;8.968;2023-12-20T08:55:14;2.77;;;2.40;;
6821;SDS011;3449;48.728;8.968;2023-12-20T08:57:44;5.83;;;2.40;;
6821;SDS011;3449;48.728;8.968;2023-12-20T09:00:11;1.27;;;1.27;;
6821;SDS011;3449;48.728;8.968;2023-12-20T09:02:39;2.53;;;2.33;;
6821;SDS011;3449;48.728;8.968;2023-12-20T09:05:06;1.57;;;1.47;;
6821;SDS011;3449;48.728;8.968;2023-12-20T09:07:33;2.43;;;1.70;;
6821;SDS011;3449;48.728;8.968;2023-12-20T09:10:00;1.60;;;1.50;;
6821;SDS011;3449;48.728;8.968;2023-12-20T09:12:27;7.57;;;1.60;;
6821;SDS011;3449;48.728;8.968;2023-12-20T09:14:55;1.63;;;1.50;;
6821;SDS011;3449;48.728;8.968;2023-12-20T09:17:22;2.10;;;1.20;;
6821;SDS011;3449;48.728;8.968;2023-12-20T09:19:49;3.90;;;1.27;;
6821;SDS011;3449;48.728;8.968;2023-12-20T09:22:17;1.80;;;1.37;;
6821;SDS011;3449;48.728;8.968;2023-12-20T09:24:44;3.60;;;1.13;;
6821;SDS011;3449;48.728;8.968;2023-12-20T09:27:11;2.00;;;0.67;;
6821;SDS011;3449;48.728;8.968;2023-12-20T09:29:38;0.80;;;0.80;;
6821;SDS011;3449;48.728;8.968;2023-12-20T09:32:06;5.67;;;1.07;;
6821;SDS011;3449;48.728;8.968;2023-12-20T09:34:33;3.47;;;1.03;;
6821;SDS011;3449;48.728;8.968;2023-12-20T09:37:00;6.07;;;0.93;;
6821;SDS011;3449;48.728;8.968;2023-12-20T09:39:28;7.17;;;1.40;;
6821;SDS011;3449;48.728;8.968;2023-12-20T09:41:59;5.37;;;1.43;;
6821;SDS011;3449;48.728;8.968;2023-12-20T09:44:27;1.77;;;1.10;;
6821;SDS011;3449;48.728;8.968;2023-12-20T09:46:55;2.50;;;0.90;;
6821;SDS011;3449;48.728;8.968;2023-12-20T09:49:24;1.70;;;0.70;;
6821;SDS011;3449;48.728;8.968;2023-12-20T09:51:53;6.37;;;1.23;;
6821;SDS011;3449;48.728;8.968;2023-12-20T09:54:21;3.63;;;1.07;;
6821;SDS011;3449;48.728;8.968;2023-12-20T09:56:48;3.43;;;0.83;;
6821;SDS011;3449;48.728;8.968;2023-12-20T09:59:15;4.90;;;1.37;;
6821;SDS011;3449;48.728;8.968;2023-12-20T10:01:43;9.23;;;1.27;;
6821;SDS011;3449;48.728;8.968;2023-12-20T10:04:10;8.87;;;0.80;;
6821;SDS011;3449;48.728;8.968;2023-12-20T10:06:40;3.13;;;1.47;;
6821;SDS011;3449;48.728;8.968;2023-12-20T10:09:07;2.70;;;1.20;;
6821;SDS011;3449;48.728;8.968;2023-12-20T10:11:35;5.60;;;1.23;;
6821;SDS011;3449;48.728;8.968;2023-12-20T10:14:03;5.80;;;1.10;;
6821;SDS011;3449;48.728;8.968;2023-12-20T10:16:30;2.63;;;1.00;;
6821;SDS011;3449;48.728;8.968;2023-12-20T10:18:58;3.50;;;0.90;;
6821;SDS011;3449;48.728;8.968;2023-12-20T10:21:26;2.37;;;1.47;;
6821;SDS011;3449;48.728;8.968;2023-12-20T10:23:55;3.23;;;1.07;;
6821;SDS011;3449;48.728;8.968;2023-12-20T10:26:23;6.80;;;1.70;;
6821;SDS011;3449;48.728;8.968;2023-12-20T10:28:50;4.33;;;1.00;;
6821;SDS011;3449;48.728;8.968;2023-12-20T10:31:30;5.63;;;1.37;;
6821;SDS011;3449;48.728;8.968;2023-12-20T10:33:59;2.47;;;0.97;;
6821;SDS011;3449;48.728;8.968;2023-12-20T10:36:27;5.20;;;0.90;;
6821;SDS011;3449;48.728;8.968;2023-12-20T10:38:56;1.70;;;0.80;;
6821;SDS011;3449;48.728;8.968;2023-12-20T10:41:24;1.67;;;0.70;;
6821;SDS011;3449;48.728;8.968;2023-12-20T10:43:54;5.60;;;0.80;;
6821;SDS011;3449;48.728;8.968;2023-12-20T10:46:24;2.00;;;0.97;;
6821;SDS011;3449;48.728;8.968;2023-12-20T10:48:53;0.80;;;0.80;;
6821;SDS011;3449;48.728;8.968;2023-12-20T10:51:21;0.67;;;0.60;;
6821;SDS011;3449;48.728;8.968;2023-12-20T10:53:49;1.03;;;1.00;;
6821;SDS011;3449;48.728;8.968;2023-12-20T10:56:18;1.77;;;0.80;;
6821;SDS011;3449;48.728;8.968;2023-12-20T10:58:46;1.30;;;0.80;;
6821;SDS011;3449;48.728;8.968;2023-12-20T11:01:14;4.73;;;1.27;;
6821;SDS011;3449;48.728;8.968;2023-12-20T11:03:44;6.47;;;1.03;;
6821;SDS011;3449;48.728;8.968;2023-12-20T11:06:18;2.90;;;0.70;;
6821;SDS011;3449;48.728;8.968;2023-12-20T11:08:55;4.57;;;1.00;;
6821;SDS011;3449;48.728;8.968;2023-12-20T11:11:37;2.37;;;0.97;;
6821;SDS011;3449;48.728;8.968;2023-12-20T11:14:14;7.17;;;2.63;;
6821;SDS011;3449;48.728;8.968;2023-12-20T11:16:45;2.70;;;1.03;;
6821;SDS011;3449;48.728;8.968;2023-12-20T11:19:12;4.70;;;1.20;;
6821;SDS011;3449;48.728;8.968;2023-12-20T11:21:39;6.53;;;1.03;;
6821;SDS011;3449;48.728;8.968;2023-12-20T11:24:07;2.40;;;1.10;;
6821;SDS011;3449;48.728;8.968;2023-12-20T11:26:33;3.77;;;1.07;;
6821;SDS011;3449;48.728;8.968;2023-12-20T11:31:59;1.67;;;0.73;;
6821;SDS011;3449;48.728;8.968;2023-12-20T11:34:27;1.13;;;0.90;;
6821;SDS011;3449;48.728;8.968;2023-12-20T11:36:57;5.30;;;1.30;;
6821;SDS011;3449;48.728;8.968;2023-12-20T11:39:25;2.20;;;1.10;;
6821;SDS011;3449;48.728;8.968;2023-12-20T11:41:55;1.63;;;1.00;;
6821;SDS011;3449;48.728;8.968;2023-12-20T11:44:25;15.03;;;1.93;;
6821;SDS011;3449;48.728;8.968;2023-12-20T11:46:52;3.27;;;1.10;;
6821;SDS011;3449;48.728;8.968;2023-12-20T11:49:22;4.80;;;1.40;;
6821;SDS011;3449;48.728;8.968;2023-12-20T11:51:50;1.60;;;0.97;;
6821;SDS011;3449;48.728;8.968;2023-12-20T11:54:17;4.47;;;1.17;;
6821;SDS011;3449;48.728;8.968;2023-12-20T11:56:44;3.80;;;1.30;;
6821;SDS011;3449;48.728;8.968;2023-12-20T11:59:12;4.93;;;1.33;;
6821;SDS011;3449;48.728;8.968;2023-12-20T12:01:40;8.83;;;1.00;;
6821;SDS011;3449;48.728;8.968;2023-12-20T12:04:13;1.80;;;0.93;;
6821;SDS011;3449;48.728;8.968;2023-12-20T12:06:40;2.87;;;1.00;;
6821;SDS011;3449;48.728;8.968;2023-12-20T12:09:07;1.27;;;0.83;;
6821;SDS011;3449;48.728;8.968;2023-12-20T12:11:35;3.97;;;1.33;;
6821;SDS011;3449;48.728;8.968;2023-12-20T12:14:02;5.60;;;1.10;;
6821;SDS011;3449;48.728;8.968;2023-12-20T12:16:30;6.17;;;1.17;;
6821;SDS011;3449;48.728;8.968;2023-12-20T12:18:57;4.47;;;1.10;;
6821;SDS011;3449;48.728;8.968;2023-12-20T12:21:25;4.00;;;1.33;;
6821;SDS011;3449;48.728;8.968;2023-12-20T12:23:52;3.07;;;0.93;;
6821;SDS011;3449;48.728;8.968;2023-12-20T12:26:19;4.60;;;1.40;;
6821;SDS011;3449;48.728;8.968;2023-12-20T12:28:46;15.33;;;1.00;;
6821;SDS011;3449;48.728;8.968;2023-12-20T12:31:13;7.03;;;1.10;;
6821;SDS011;3449;48.728;8.968;2023-12-20T12:33:42;3.53;;;1.17;;
6821;SDS011;3449;48.728;8.968;2023-12-20T12:36:10;3.17;;;0.80;;
6821;SDS011;3449;48.728;8.968;2023-12-20T12:38:37;2.33;;;1.10;;
6821;SDS011;3449;48.728;8.968;2023-12-20T12:41:04;8.10;;;1.20;;
6821;SDS011;3449;48.728;8.968;2023-12-20T12:43:32;2.53;;;0.90;;
6821;SDS011;3449;48.728;8.968;2023-12-20T12:45:59;2.10;;;1.00;;
6821;SDS011;3449;48.728;8.968;2023-12-20T12:48:26;3.20;;;1.10;;
6821;SDS011;3449;48.728;8.968;2023-12-20T12:50:55;4.23;;;0.70;;
6821;SDS011;3449;48.728;8.968;2023-12-20T12:53:24;2.20;;;0.90;;
6821;SDS011;3449;48.728;8.968;2023-12-20T12:55:52;3.07;;;2.30;;
6821;SDS011;3449;48.728;8.968;2023-12-20T12:58:20;1.20;;;1.10;;
6821;SDS011;3449;48.728;8.968;2023-12-20T13:00:47;6.20;;;1.30;;
6821;SDS011;3449;48.728;8.968;2023-12-20T13:03:14;0.90;;;0.80;;
6821;SDS011;3449;48.728;8.968;2023-12-20T13:05:41;0.90;;;0.73;;
6821;SDS011;3449;48.728;8.968;2023-12-20T13:08:10;1.33;;;0.90;;
6821;SDS011;3449;48.728;8.968;2023-12-20T13:10:37;2.00;;;0.90;;
6821;SDS011;3449;48.728;8.968;2023-12-20T13:13:04;4.83;;;0.60;;
6821;SDS011;3449;48.728;8.968;2023-12-20T13:15:31;7.13;;;0.73;;
6821;SDS011;3449;48.728;8.968;2023-12-20T13:17:57;6.53;;;0.97;;
6821;SDS011;3449;48.728;8.968;2023-12-20T13:20:25;8.13;;;1.13;;
6821;SDS011;3449;48.728;8.968;2023-12-20T13:22:52;2.40;;;0.90;;
6821;SDS011;3449;48.728;8.968;2023-12-20T13:25:20;0.97;;;0.60;;
6821;SDS011;3449;48.728;8.968;2023-12-20T13:27:46;1.67;;;0.80;;
6821;SDS011;3449;48.728;8.968;2023-12-20T13:30:14;3.17;;;0.97;;
6821;SDS011;3449;48.728;8.968;2023-12-20T13:32:42;1.80;;;0.60;;
6821;SDS011;3449;48.728;8.968;2023-12-20T13:35:09;2.90;;;1.10;;
6821;SDS011;3449;48.728;8.968;2023-12-20T13:37:36;0.90;;;0.70;;
6821;SDS011;3449;48.728;8.968;2023-12-20T13:40:03;2.60;;;0.90;;
6821;SDS011;3449;48.728;8.968;2023-12-20T13:42:32;1.53;;;0.73;;
6821;SDS011;3449;48.728;8.968;2023-12-20T13:44:59;7.27;;;1.27;;
6821;SDS011;3449;48.728;8.968;2023-12-20T13:47:26;1.67;;;0.50;;
6821;SDS011;3449;48.728;8.968;2023-12-20T13:49:54;1.90;;;1.33;;
6821;SDS011;3449;48.728;8.968;2023-12-20T13:52:21;3.37;;;0.70;;
6821;SDS011;3449;48.728;8.968;2023-12-20T13:54:48;1.10;;;0.93;;
6821;SDS011;3449;48.728;8.968;2023-12-20T13:57:14;2.27;;;0.93;;
6821;SDS011;3449;48.728;8.968;2023-12-20T13:59:43;1.30;;;0.87;;
6821;SDS011;3449;48.728;8.968;2023-12-20T14:02:10;10.53;;;1.03;;
6821;SDS011;3449;48.728;8.968;2023-12-20T14:04:36;4.67;;;1.07;;
6821;SDS011;3449;48.728;8.968;2023-12-20T14:07:05;0.97;;;0.87;;
6821;SDS011;3449;48.728;8.968;2023-12-20T14:09:33;5.47;;;1.10;;
6821;SDS011;3449;48.728;8.968;2023-12-20T14:12:00;5.10;;;0.87;;
6821;SDS011;3449;48.728;8.968;2023-12-20T14:14:27;7.03;;;1.10;;
6821;SDS011;3449;48.728;8.968;2023-12-20T14:16:55;1.87;;;1.00;;
6821;SDS011;3449;48.728;8.968;2023-12-20T14:19:21;1.23;;;0.80;;
6821;SDS011;3449;48.728;8.968;2023-12-20T14:21:48;5.40;;;1.33;;
6821;SDS011;3449;48.728;8.968;2023-12-20T14:24:15;3.40;;;0.87;;
6821;SDS011;3449;48.728;8.968;2023-12-20T14:26:42;2.57;;;0.90;;
6821;SDS011;3449;48.728;8.968;2023-12-20T14:29:09;2.30;;;1.00;;
6821;SDS011;3449;48.728;8.968;2023-12-20T14:31:36;0.67;;;0.67;;
6821;SDS011;3449;48.728;8.968;2023-12-20T14:34:05;1.67;;;1.10;;
6821;SDS011;3449;48.728;8.968;2023-12-20T14:36:32;7.67;;;1.40;;
6821;SDS011;3449;48.728;8.968;2023-12-20T14:38:58;3.30;;;1.00;;
6821;SDS011;3449;48.728;8.968;2023-12-20T14:41:26;4.30;;;0.90;;
6821;SDS011;3449;48.728;8.968;2023-12-20T14:43:53;3.10;;;1.03;;
6821;SDS011;3449;48.728;8.968;2023-12-20T14:46:20;2.03;;;1.10;;
6821;SDS011;3449;48.728;8.968;2023-12-20T14:48:47;3.97;;;0.90;;
6821;SDS011;3449;48.728;8.968;2023-12-20T14:51:16;1.57;;;1.07;;
6821;SDS011;3449;48.728;8.968;2023-12-20T14:53:43;4.47;;;1.00;;
6821;SDS011;3449;48.728;8.968;2023-12-20T14:56:09;4.03;;;1.10;;
6821;SDS011;3449;48.728;8.968;2023-12-20T14:58:36;1.30;;;0.63;;
6821;SDS011;3449;48.728;8.968;2023-12-20T15:01:03;2.20;;;1.03;;
6821;SDS011;3449;48.728;8.968;2023-12-20T15:03:32;9.23;;;1.40;;
6821;SDS011;3449;48.728;8.968;2023-12-20T15:05:59;2.47;;;1.10;;
6821;SDS011;3449;48.728;8.968;2023-12-20T15:08:27;4.47;;;1.37;;
6821;SDS011;3449;48.728;8.968;2023-12-20T15:10:55;8.70;;;1.33;;
6821;SDS011;3449;48.728;8.968;2023-12-20T15:13:22;5.10;;;1.30;;
6821;SDS011;3449;48.728;8.968;2023-12-20T15:15:49;8.73;;;1.20;;
6821;SDS011;3449;48.728;8.968;2023-12-20T15:18:16;3.10;;;1.47;;
6821;SDS011;3449;48.728;8.968;2023-12-20T15:20:42;4.73;;;1.80;;